createdAt,value
2022-10-12T00:00:01.468Z,12.00
2022-10-12T00:02:28.734Z,12.00
2022-10-12T00:04:55.985Z,12.00
2022-10-12T00:07:23.308Z,12.00
2022-10-12T00:09:50.630Z,11.90
2022-10-12T00:12:17.865Z,11.90
2022-10-12T00:14:45.126Z,11.90
2022-10-12T00:17:12.401Z,11.90
2022-10-12T00:19:40.551Z,11.80
2022-10-12T00:22:07.843Z,11.90
2022-10-12T00:24:37.469Z,11.80
2022-10-12T00:27:07.765Z,11.80
2022-10-12T00:29:35.110Z,11.80
2022-10-12T00:32:02.380Z,11.70
2022-10-12T00:34:29.671Z,11.70
2022-10-12T00:36:57.150Z,11.80
2022-10-12T00:39:24.471Z,11.70
2022-10-12T00:41:52.013Z,11.80
2022-10-12T00:44:39.519Z,11.70
2022-10-12T00:47:18.501Z,11.70
2022-10-12T00:50:07.442Z,11.70
2022-10-12T00:52:52.904Z,11.70
2022-10-12T00:55:21.943Z,11.60
2022-10-12T00:57:52.001Z,11.60
2022-10-12T01:00:20.193Z,11.60
2022-10-12T01:02:50.811Z,11.50
2022-10-12T01:05:19.144Z,11.60
2022-10-12T01:07:46.514Z,11.60
2022-10-12T01:10:14.024Z,11.60
2022-10-12T01:12:43.118Z,11.60
2022-10-12T01:15:11.681Z,11.60
2022-10-12T01:18:16.767Z,11.60
2022-10-12T01:20:54.947Z,11.60
2022-10-12T01:23:37.289Z,11.60
2022-10-12T01:26:16.444Z,11.60
2022-10-12T01:29:04.780Z,11.60
2022-10-12T01:31:45.402Z,11.60
2022-10-12T01:34:29.601Z,11.50
2022-10-12T01:37:12.547Z,11.50
2022-10-12T01:39:47.156Z,11.50
2022-10-12T01:42:20.300Z,11.40
2022-10-12T01:44:47.530Z,11.40
2022-10-12T01:47:14.869Z,11.40
2022-10-12T01:49:42.237Z,11.30
2022-10-12T01:52:25.723Z,11.30
2022-10-12T01:55:01.855Z,11.30
2022-10-12T01:58:13.721Z,11.20
2022-10-12T02:00:55.636Z,11.10
2022-10-12T02:03:45.159Z,11.10
2022-10-12T02:06:18.894Z,11.00
2022-10-12T02:09:11.482Z,10.90
2022-10-12T02:11:41.342Z,10.80
2022-10-12T02:14:19.838Z,10.70
2022-10-12T02:16:51.989Z,10.70
2022-10-12T02:19:24.730Z,10.60
2022-10-12T02:21:56.788Z,10.50
2022-10-12T02:24:24.718Z,10.50
2022-10-12T02:26:54.481Z,10.50
2022-10-12T02:29:25.921Z,10.40
2022-10-12T02:32:14.079Z,10.40
2022-10-12T02:34:50.616Z,10.30
2022-10-12T02:37:40.251Z,10.30
2022-10-12T02:40:19.027Z,10.30
2022-10-12T02:43:09.816Z,10.20
2022-10-12T02:45:43.007Z,10.10
2022-10-12T02:48:15.233Z,10.10
2022-10-12T02:50:43.439Z,10.10
2022-10-12T02:53:12.754Z,10.00
2022-10-12T02:55:56.551Z,10.00
2022-10-12T02:58:23.766Z,10.00
2022-10-12T03:00:51.055Z,9.90
2022-10-12T03:03:18.585Z,9.90
2022-10-12T03:05:46.129Z,9.80
2022-10-12T03:08:13.458Z,9.80
2022-10-12T03:10:40.695Z,9.80
2022-10-12T03:13:08.091Z,9.80
2022-10-12T03:15:35.427Z,9.70
2022-10-12T03:18:02.740Z,9.70
2022-10-12T03:20:30.044Z,9.70
2022-10-12T03:22:57.509Z,9.60
2022-10-12T03:25:24.847Z,9.60
2022-10-12T03:27:52.136Z,9.60
2022-10-12T03:30:19.643Z,9.50
2022-10-12T03:32:46.954Z,9.50
2022-10-12T03:35:14.322Z,9.50
2022-10-12T03:37:41.673Z,9.40
2022-10-12T03:40:10.196Z,9.40
2022-10-12T03:42:37.480Z,9.40
2022-10-12T03:45:05.136Z,9.30
2022-10-12T03:47:32.380Z,9.30
2022-10-12T03:49:59.549Z,9.20
2022-10-12T03:52:27.115Z,9.20
2022-10-12T03:54:54.272Z,9.20
2022-10-12T03:57:21.587Z,9.10
2022-10-12T03:59:48.840Z,9.00
2022-10-12T04:02:17.315Z,9.00
2022-10-12T04:04:44.709Z,9.00
2022-10-12T04:07:12.175Z,9.00
2022-10-12T04:09:39.501Z,9.00
2022-10-12T04:12:06.892Z,8.90
2022-10-12T04:14:34.062Z,8.90
2022-10-12T04:17:01.487Z,8.90
2022-10-12T04:19:28.770Z,8.90
2022-10-12T04:21:56.032Z,8.90
2022-10-12T04:24:23.239Z,8.80
2022-10-12T04:26:50.525Z,8.80
2022-10-12T04:29:17.753Z,8.80
2022-10-12T04:31:44.964Z,8.70
2022-10-12T04:34:12.422Z,8.80
2022-10-12T04:36:39.652Z,8.70
2022-10-12T04:39:07.174Z,8.70
2022-10-12T04:41:34.536Z,8.70
2022-10-12T04:44:01.882Z,8.70
2022-10-12T04:46:29.354Z,8.70
2022-10-12T04:48:56.697Z,8.70
2022-10-12T04:51:23.939Z,8.70
2022-10-12T04:53:51.612Z,8.70
2022-10-12T04:56:19.314Z,8.70
2022-10-12T04:58:46.957Z,8.60
2022-10-12T05:01:14.261Z,8.60
2022-10-12T05:03:42.255Z,8.70
2022-10-12T05:06:09.641Z,8.70
2022-10-12T05:08:36.921Z,8.70
2022-10-12T05:11:04.428Z,8.80
2022-10-12T05:13:31.734Z,8.90
2022-10-12T05:15:58.984Z,9.00
2022-10-12T05:18:26.432Z,9.10
2022-10-12T05:20:56.990Z,9.20
2022-10-12T05:23:24.633Z,9.20
2022-10-12T05:25:54.165Z,9.30
2022-10-12T05:28:21.456Z,9.40
2022-10-12T05:30:52.891Z,9.50
2022-10-12T05:33:20.520Z,9.60
2022-10-12T05:35:54.640Z,9.70
2022-10-12T05:38:23.495Z,9.80
2022-10-12T05:40:50.742Z,9.80
2022-10-12T05:43:18.202Z,9.90
2022-10-12T05:45:45.626Z,10.00
2022-10-12T05:48:12.952Z,10.00
2022-10-12T05:50:40.247Z,10.10
2022-10-12T05:53:07.505Z,10.20
2022-10-12T05:55:34.729Z,10.20
2022-10-12T05:58:01.946Z,10.20
2022-10-12T06:00:29.393Z,10.20
2022-10-12T06:02:56.738Z,10.20
2022-10-12T06:05:25.161Z,10.20
2022-10-12T06:07:52.443Z,10.30
2022-10-12T06:10:19.706Z,10.20
2022-10-12T06:12:46.991Z,10.20
2022-10-12T06:15:14.255Z,10.30
2022-10-12T06:17:41.581Z,10.40
2022-10-12T06:20:09.453Z,10.40
2022-10-12T06:22:37.031Z,10.40
2022-10-12T06:25:04.889Z,10.40
2022-10-12T06:27:32.179Z,10.40
2022-10-12T06:29:59.448Z,10.40
2022-10-12T06:32:26.678Z,10.40
2022-10-12T06:34:54.024Z,10.30
2022-10-12T06:37:48.130Z,10.40
2022-10-12T06:40:09.148Z,10.40
2022-10-12T06:42:36.762Z,10.50
2022-10-12T06:45:06.724Z,10.60
2022-10-12T06:47:33.924Z,10.60
2022-10-12T06:50:01.230Z,10.50
2022-10-12T06:52:28.488Z,10.60
2022-10-12T06:54:55.731Z,10.70
2022-10-12T06:57:22.954Z,10.80
2022-10-12T06:59:50.161Z,11.00
2022-10-12T07:02:18.050Z,11.10
2022-10-12T07:04:49.108Z,11.20
2022-10-12T07:07:16.792Z,11.40
2022-10-12T07:09:44.139Z,11.40
2022-10-12T07:12:11.348Z,11.60
2022-10-12T07:14:38.604Z,11.60
2022-10-12T07:17:06.099Z,11.70
2022-10-12T07:19:33.461Z,11.80
2022-10-12T07:22:01.551Z,11.80
2022-10-12T07:24:36.476Z,12.00
2022-10-12T07:27:07.854Z,12.20
2022-10-12T07:29:36.218Z,12.30
2022-10-12T07:32:03.738Z,12.40
2022-10-12T07:34:31.056Z,12.50
2022-10-12T07:36:59.776Z,12.60
2022-10-12T07:39:27.605Z,12.70
2022-10-12T07:41:55.907Z,12.90
2022-10-12T07:44:24.540Z,13.10
2022-10-12T07:46:52.241Z,13.20
2022-10-12T07:49:19.653Z,13.30
2022-10-12T07:51:47.466Z,13.30
2022-10-12T07:54:20.292Z,13.30
2022-10-12T07:56:49.114Z,13.40
2022-10-12T07:59:16.423Z,13.40
2022-10-12T08:01:43.805Z,13.50
2022-10-12T08:04:11.239Z,13.60
2022-10-12T08:06:38.473Z,13.60
2022-10-12T08:09:05.755Z,13.70
2022-10-12T08:11:37.566Z,13.80
2022-10-12T08:14:04.801Z,13.90
2022-10-12T08:16:32.099Z,14.10
2022-10-12T08:19:00.624Z,14.20
2022-10-12T08:21:27.925Z,14.30
2022-10-12T08:23:55.293Z,14.40
2022-10-12T08:26:22.598Z,14.40
2022-10-12T08:28:49.853Z,14.40
2022-10-12T08:31:17.982Z,14.50
2022-10-12T08:33:45.643Z,14.60
2022-10-12T08:36:13.391Z,14.60
2022-10-12T08:38:40.761Z,14.70
2022-10-12T08:41:24.105Z,14.80
2022-10-12T08:44:18.987Z,14.90
2022-10-12T08:46:46.825Z,15.00
2022-10-12T08:49:18.723Z,15.00
2022-10-12T08:51:50.039Z,15.10
2022-10-12T08:54:23.609Z,15.20
2022-10-12T08:56:54.449Z,15.20
2022-10-12T08:59:21.828Z,15.20
2022-10-12T09:02:04.060Z,15.10
2022-10-12T09:04:47.780Z,15.10
2022-10-12T09:07:31.338Z,15.30
2022-10-12T09:10:17.193Z,15.50
2022-10-12T09:12:49.681Z,15.50
2022-10-12T09:15:21.827Z,15.60
2022-10-12T09:17:55.876Z,15.70
2022-10-12T09:20:28.595Z,15.80
2022-10-12T09:23:15.479Z,15.80
2022-10-12T09:25:43.294Z,16.00
2022-10-12T09:28:19.558Z,16.10
2022-10-12T09:31:12.781Z,16.30
2022-10-12T09:33:53.702Z,16.30
2022-10-12T09:36:23.056Z,16.50
2022-10-12T09:38:51.046Z,16.70
2022-10-12T09:41:29.560Z,16.80
2022-10-12T09:44:00.044Z,16.80
2022-10-12T09:46:59.010Z,16.70
2022-10-12T09:49:42.284Z,16.60
2022-10-12T09:52:10.541Z,16.60
2022-10-12T09:57:39.430Z,16.90
2022-10-12T10:00:30.492Z,17.00
2022-10-12T10:02:58.438Z,17.20
2022-10-12T10:05:34.761Z,17.30
2022-10-12T10:08:22.028Z,17.30
2022-10-12T10:10:55.317Z,17.40
2022-10-12T10:13:26.586Z,17.60
2022-10-12T10:16:14.142Z,17.80
2022-10-12T10:18:54.769Z,18.20
2022-10-12T10:21:35.146Z,18.40
2022-10-12T10:24:03.550Z,18.20
2022-10-12T10:26:56.516Z,18.20
2022-10-12T10:29:32.940Z,18.20
2022-10-12T10:32:12.688Z,18.10
2022-10-12T10:34:42.762Z,17.80
2022-10-12T10:37:20.237Z,18.10
2022-10-12T10:39:54.745Z,18.30
2022-10-12T10:42:32.047Z,18.50
2022-10-12T10:45:07.217Z,18.70
2022-10-12T10:47:43.364Z,18.80
2022-10-12T10:50:32.607Z,19.50
2022-10-12T10:53:02.920Z,20.10
2022-10-12T10:55:45.101Z,20.70
2022-10-12T10:58:42.774Z,20.70
2022-10-12T11:01:36.329Z,20.60
2022-10-12T11:04:14.578Z,20.40
2022-10-12T11:06:44.857Z,20.20
2022-10-12T11:09:15.455Z,20.20
2022-10-12T11:11:44.534Z,19.60
2022-10-12T11:14:16.563Z,19.90
2022-10-12T11:16:58.501Z,20.10
2022-10-12T11:19:28.437Z,20.10
2022-10-12T11:22:21.277Z,20.50
2022-10-12T11:25:10.865Z,20.70
2022-10-12T11:27:40.845Z,20.50
2022-10-12T11:30:24.126Z,20.20
2022-10-12T11:33:14.234Z,20.30
2022-10-12T11:35:44.439Z,20.50
2022-10-12T11:38:25.804Z,20.60
2022-10-12T11:41:18.965Z,20.60
2022-10-12T11:44:02.550Z,20.40
2022-10-12T11:46:41.985Z,20.50
2022-10-12T11:49:26.652Z,20.60
2022-10-12T11:51:58.398Z,20.70
2022-10-12T11:54:52.052Z,20.60
2022-10-12T11:57:26.662Z,20.50
2022-10-12T11:59:59.303Z,20.50
2022-10-12T12:02:39.530Z,20.60
2022-10-12T12:05:16.248Z,20.10
2022-10-12T12:07:55.625Z,20.20
2022-10-12T12:10:30.800Z,20.30
2022-10-12T12:13:18.280Z,20.10
2022-10-12T12:15:49.837Z,20.30
2022-10-12T12:18:33.611Z,20.30
2022-10-12T12:21:08.829Z,20.30
2022-10-12T12:23:53.530Z,20.70
2022-10-12T12:26:26.842Z,21.70
2022-10-12T12:29:31.583Z,23.00
2022-10-12T12:32:00.725Z,23.10
2022-10-12T12:34:28.867Z,23.50
2022-10-12T12:36:58.181Z,23.50
2022-10-12T12:39:32.372Z,23.00
2022-10-12T12:42:02.917Z,22.40
2022-10-12T12:44:42.898Z,21.90
2022-10-12T12:50:37.085Z,21.20
2022-10-12T12:53:07.423Z,20.70
2022-10-12T12:55:56.012Z,20.60
2022-10-12T12:58:34.179Z,21.10
2022-10-12T13:01:37.259Z,21.30
2022-10-12T13:04:49.513Z,21.10
2022-10-12T13:07:32.232Z,22.10
2022-10-12T13:10:06.040Z,22.60
2022-10-12T13:13:04.699Z,23.80
2022-10-12T13:15:37.847Z,25.90
2022-10-12T13:18:45.310Z,27.90
2022-10-12T13:21:12.694Z,28.80
2022-10-12T13:23:40.416Z,30.20
2022-10-12T13:26:10.449Z,31.20
2022-10-12T13:28:42.658Z,31.00
2022-10-12T13:31:16.709Z,29.40
2022-10-12T13:33:56.670Z,27.60
2022-10-12T13:36:33.185Z,27.50
2022-10-12T13:39:08.715Z,28.30
2022-10-12T13:41:36.304Z,30.20
2022-10-12T13:44:07.354Z,31.60
2022-10-12T13:46:40.287Z,31.40
2022-10-12T13:49:25.955Z,31.40
2022-10-12T13:52:00.563Z,31.50
2022-10-12T13:54:40.924Z,33.10
2022-10-12T13:57:32.802Z,32.80
2022-10-12T14:00:18.139Z,32.50
2022-10-12T14:02:57.452Z,32.60
2022-10-12T14:05:27.027Z,32.30
2022-10-12T14:07:59.029Z,32.00
2022-10-12T14:10:34.290Z,32.40
2022-10-12T14:13:02.799Z,30.80
2022-10-12T14:15:37.194Z,30.70
2022-10-12T14:18:04.741Z,29.80
2022-10-12T14:20:37.658Z,28.60
2022-10-12T14:23:25.168Z,28.20
2022-10-12T14:25:54.555Z,27.70
2022-10-12T14:28:35.625Z,27.40
2022-10-12T14:31:03.494Z,28.20
2022-10-12T14:33:32.029Z,28.70
2022-10-12T14:36:14.137Z,28.80
2022-10-12T14:38:48.872Z,29.80
2022-10-12T14:41:49.384Z,28.90
2022-10-12T14:44:17.804Z,28.80
2022-10-12T14:46:54.084Z,29.40
2022-10-12T14:49:44.351Z,29.50
2022-10-12T14:52:37.962Z,28.30
2022-10-12T14:55:06.184Z,27.50
2022-10-12T14:57:33.439Z,28.10
2022-10-12T15:00:00.778Z,28.30
2022-10-12T15:02:32.928Z,28.40
2022-10-12T15:05:00.795Z,28.10
2022-10-12T15:07:32.416Z,27.70
2022-10-12T15:10:00.878Z,27.70
2022-10-12T15:12:31.759Z,26.90
2022-10-12T15:15:01.661Z,26.20
2022-10-12T15:17:29.012Z,26.00
2022-10-12T15:19:56.296Z,25.80
2022-10-12T15:22:25.552Z,25.20
2022-10-12T15:24:54.877Z,25.00
2022-10-12T15:27:22.207Z,24.50
2022-10-12T15:29:49.775Z,24.20
2022-10-12T15:32:18.721Z,24.70
2022-10-12T15:34:46.363Z,24.60
2022-10-12T15:37:14.010Z,23.80
2022-10-12T15:39:42.823Z,23.10
2022-10-12T15:42:12.436Z,22.90
2022-10-12T15:44:41.334Z,22.60
2022-10-12T15:47:10.631Z,22.80
2022-10-12T15:49:38.945Z,22.00
2022-10-12T15:52:13.692Z,21.30
2022-10-12T15:54:46.750Z,20.20
2022-10-12T15:57:16.131Z,19.20
2022-10-12T15:59:44.733Z,18.50
2022-10-12T16:02:12.913Z,18.00
2022-10-12T16:04:40.127Z,17.80
2022-10-12T16:07:07.437Z,17.50
2022-10-12T16:09:34.701Z,17.30
2022-10-12T16:12:02.047Z,17.00
2022-10-12T16:14:29.230Z,16.60
2022-10-12T16:16:56.492Z,16.30
2022-10-12T16:19:23.733Z,16.20
2022-10-12T16:21:51.338Z,15.90
2022-10-12T16:24:18.766Z,15.70
2022-10-12T16:26:47.465Z,15.40
2022-10-12T16:29:14.889Z,15.20
2022-10-12T16:34:14.990Z,14.80
2022-10-12T16:36:42.374Z,14.70
2022-10-12T16:39:09.646Z,14.60
2022-10-12T16:41:36.913Z,14.50
2022-10-12T16:44:04.784Z,14.40
2022-10-12T16:46:31.978Z,14.30
2022-10-12T16:48:59.315Z,14.20
2022-10-12T16:51:26.713Z,14.10
2022-10-12T16:53:54.001Z,14.00
2022-10-12T16:56:21.246Z,13.90
2022-10-12T16:58:48.786Z,13.90
2022-10-12T17:01:16.082Z,13.80
2022-10-12T17:03:43.358Z,13.70
2022-10-12T17:06:11.410Z,13.60
2022-10-12T17:08:39.556Z,13.60
2022-10-12T17:11:12.166Z,13.50
2022-10-12T17:13:44.038Z,13.50
2022-10-12T17:16:33.927Z,13.40
2022-10-12T17:19:01.242Z,13.40
2022-10-12T17:21:28.929Z,13.40
2022-10-12T17:23:57.866Z,13.30
2022-10-12T17:26:25.526Z,13.30
2022-10-12T17:28:52.806Z,13.30
2022-10-12T17:31:20.165Z,13.20
2022-10-12T17:33:47.572Z,13.20
2022-10-12T17:36:15.836Z,13.20
2022-10-12T17:38:44.772Z,13.10
2022-10-12T17:41:12.063Z,13.10
2022-10-12T17:43:39.703Z,13.10
2022-10-12T17:46:07.351Z,13.10
2022-10-12T17:48:34.885Z,13.00
2022-10-12T17:51:13.270Z,13.00
2022-10-12T17:53:41.027Z,13.00
2022-10-12T17:56:11.777Z,13.00
2022-10-12T17:58:39.186Z,13.00
2022-10-12T18:01:12.836Z,12.90
2022-10-12T18:03:42.222Z,12.90
2022-10-12T18:06:12.303Z,12.90
2022-10-12T18:08:39.822Z,12.90
2022-10-12T18:11:07.836Z,12.90
2022-10-12T18:13:36.516Z,12.90
2022-10-12T18:16:13.549Z,12.90
2022-10-12T18:18:41.867Z,12.80
2022-10-12T18:21:13.931Z,12.80
2022-10-12T18:23:41.485Z,12.80
2022-10-12T18:26:11.355Z,12.70
2022-10-12T18:28:39.506Z,12.70
2022-10-12T18:31:07.085Z,12.60
2022-10-12T18:33:34.522Z,12.60
2022-10-12T18:36:06.935Z,12.60
2022-10-12T18:38:35.693Z,12.60
2022-10-12T18:41:16.379Z,12.60
2022-10-12T18:43:43.687Z,12.50
2022-10-12T18:46:17.051Z,12.50
2022-10-12T18:48:44.953Z,12.50
2022-10-12T18:51:25.156Z,12.40
2022-10-12T18:53:52.875Z,12.40
2022-10-12T18:56:20.623Z,12.40
2022-10-12T18:58:48.042Z,12.40
2022-10-12T19:01:21.044Z,12.40
2022-10-12T19:03:49.097Z,12.50
2022-10-12T19:06:19.220Z,12.50
2022-10-12T19:08:48.121Z,12.50
2022-10-12T19:11:17.712Z,12.60
2022-10-12T19:13:51.361Z,12.60
2022-10-12T19:16:18.723Z,12.60
2022-10-12T19:18:46.161Z,12.60
2022-10-12T19:21:18.714Z,12.60
2022-10-12T19:23:46.422Z,12.60
2022-10-12T19:26:26.189Z,12.60
2022-10-12T19:28:57.422Z,12.60
2022-10-12T19:31:30.839Z,12.60
2022-10-12T19:34:00.885Z,12.50
2022-10-12T19:36:28.798Z,12.50
2022-10-12T19:38:57.673Z,12.50
2022-10-12T19:41:26.277Z,12.50
2022-10-12T19:43:53.539Z,12.50
2022-10-12T19:46:21.193Z,12.50
2022-10-12T19:48:52.656Z,12.50
2022-10-12T19:51:21.777Z,12.50
2022-10-12T19:53:53.177Z,12.50
2022-10-12T19:56:23.744Z,12.40
2022-10-12T19:58:52.864Z,12.40
2022-10-12T20:01:22.875Z,12.40
2022-10-12T20:03:51.064Z,12.40
2022-10-12T20:06:25.469Z,12.40
2022-10-12T20:08:54.788Z,12.40
2022-10-12T20:11:24.673Z,12.40
2022-10-12T20:13:53.165Z,12.40
2022-10-12T20:16:21.729Z,12.40
2022-10-12T20:18:50.433Z,12.40
2022-10-12T20:21:20.441Z,12.40
2022-10-12T20:23:48.043Z,12.40
2022-10-12T20:26:18.834Z,12.40
2022-10-12T20:28:46.601Z,12.40
2022-10-12T20:31:14.181Z,12.40
2022-10-12T20:33:41.880Z,12.40
2022-10-12T20:36:18.661Z,12.40
2022-10-12T20:38:45.984Z,12.40
2022-10-12T20:41:14.255Z,12.40
2022-10-12T20:43:41.831Z,12.40
2022-10-12T20:46:14.665Z,12.40
2022-10-12T20:48:44.474Z,12.40
2022-10-12T20:51:24.272Z,12.40
2022-10-12T20:53:52.715Z,12.40
2022-10-12T20:56:20.674Z,12.40
2022-10-12T20:58:48.102Z,12.50
2022-10-12T21:01:17.013Z,12.60
2022-10-12T21:03:44.562Z,12.70
2022-10-12T21:06:15.983Z,12.70
2022-10-12T21:08:44.006Z,12.80
2022-10-12T21:11:11.555Z,12.80
2022-10-12T21:13:41.287Z,12.90
2022-10-12T21:16:09.746Z,12.90
2022-10-12T21:18:38.530Z,13.00
2022-10-12T21:21:11.633Z,13.00
2022-10-12T21:23:43.523Z,13.10
2022-10-12T21:26:10.956Z,13.10
2022-10-12T21:28:38.347Z,13.10
2022-10-12T21:31:05.982Z,13.20
2022-10-12T21:33:34.497Z,13.20
2022-10-12T21:36:14.379Z,13.20
2022-10-12T21:38:42.486Z,13.20
2022-10-12T21:41:11.922Z,13.20
2022-10-12T21:43:40.976Z,13.10
2022-10-12T21:46:15.568Z,13.10
2022-10-12T21:48:43.062Z,13.00
2022-10-12T21:51:10.615Z,13.00
2022-10-12T21:53:39.070Z,13.00
2022-10-12T21:56:14.396Z,12.90
2022-10-12T21:58:41.904Z,13.00
2022-10-12T22:01:16.735Z,12.90
2022-10-12T22:03:45.412Z,12.90
2022-10-12T22:06:17.885Z,12.80
2022-10-12T22:08:49.537Z,12.70
2022-10-12T22:11:17.889Z,12.60
2022-10-12T22:13:45.508Z,12.50
2022-10-12T22:16:15.909Z,12.40
2022-10-12T22:18:43.843Z,12.30
2022-10-12T22:21:14.000Z,12.30
2022-10-12T22:23:42.159Z,12.20
2022-10-12T22:26:16.061Z,12.10
2022-10-12T22:28:53.998Z,12.00
2022-10-12T22:31:23.189Z,12.00
2022-10-12T22:33:50.881Z,11.90
2022-10-12T22:36:18.973Z,11.90
2022-10-12T22:38:46.573Z,11.80
2022-10-12T22:41:16.689Z,11.70
2022-10-12T22:43:48.508Z,11.70
2022-10-12T22:46:16.530Z,11.70
2022-10-12T22:48:43.832Z,11.60
2022-10-12T22:51:17.307Z,11.50
2022-10-12T22:53:45.063Z,11.50
2022-10-12T22:56:16.316Z,11.50
2022-10-12T22:58:44.136Z,11.40
2022-10-12T23:01:13.787Z,11.40
2022-10-12T23:03:41.791Z,11.30
2022-10-12T23:06:17.054Z,11.30
2022-10-12T23:08:45.156Z,11.20
2022-10-12T23:11:18.180Z,11.20
2022-10-12T23:13:47.088Z,11.10
2022-10-12T23:16:17.456Z,11.10
2022-10-12T23:18:45.497Z,11.00
2022-10-12T23:21:15.789Z,11.10
2022-10-12T23:23:44.608Z,11.00
2022-10-12T23:26:22.765Z,11.00
2022-10-12T23:28:51.272Z,11.00
2022-10-12T23:31:21.113Z,10.90
2022-10-12T23:33:56.552Z,10.90
2022-10-12T23:36:23.861Z,10.90
2022-10-12T23:38:51.231Z,10.80
2022-10-12T23:41:18.989Z,10.80
2022-10-12T23:43:46.331Z,10.80
2022-10-12T23:46:13.774Z,10.70
2022-10-12T23:48:41.336Z,10.70
2022-10-12T23:51:09.777Z,10.60
2022-10-12T23:53:37.944Z,10.60
2022-10-12T23:56:06.415Z,10.70
2022-10-12T23:58:34.041Z,10.60
